Main page
METAR-TAF:

METAR-TAF

Airports :

Pocono Mountains Municipal Airport

Mount Pocono, Pennsylvania, United States

latitude: 41-08-20N, longitude: 075-23-46W, elevation: 1916 ft

Current weather observation

The report was made 1 hour and 0 minutes ago, at 02:53 UTC
Calm wind
Temperature 41°F
Humidity 45%
Pressure 29.91 in. Hg
Visibility: 10 miles
Clear sky

METAR: KMPO 250253Z AUTO 00000KT 10SM CLR 05/M06 A2991 RMK AO2 SLP138 T00501056 55004 $

Time: 22:53 (03:53 UTC)


TAF: missing

Weather observations and forecasts of more than 4000 airports (METAR and TAF reports).

The available stations are represented by yellow and red dots on the map.

Hover mouse over dot to see the name of the station.

Then click to see weather observations and forecasts.

To change the map : click on the green buttons with a black cross to zoom in, on the green button with a dash to zoom out, or on the green arrows for adjacent maps.


METAR-TAF: